createdAt,value
2017-04-01T00:00:36.655Z,99.99
2017-04-01T00:01:47.647Z,99.99
2017-04-01T00:02:58.645Z,99.99
2017-04-01T00:04:09.635Z,99.99
2017-04-01T00:05:20.622Z,99.99
2017-04-01T00:06:31.820Z,99.99
2017-04-01T00:07:43.019Z,99.99
2017-04-01T00:08:54.012Z,99.99
2017-04-01T00:10:05.003Z,99.99
2017-04-01T00:11:16.056Z,99.99
2017-04-01T00:12:27.057Z,99.99
2017-04-01T00:13:38.046Z,99.99
2017-04-01T00:14:49.088Z,99.99
2017-04-01T00:16:00.284Z,99.99
2017-04-01T00:17:11.267Z,99.99
2017-04-01T00:18:22.266Z,99.99
2017-04-01T00:19:33.659Z,99.99
2017-04-01T00:20:44.848Z,99.99
2017-04-01T00:21:55.879Z,99.99
2017-04-01T00:23:06.868Z,99.99
2017-04-01T00:24:17.899Z,99.99
2017-04-01T00:25:29.089Z,99.99
2017-04-01T00:26:40.078Z,99.99
2017-04-01T00:27:51.272Z,99.99
2017-04-01T00:29:02.255Z,99.99
2017-04-01T00:30:13.250Z,99.99
2017-04-01T00:31:24.639Z,99.99
2017-04-01T00:32:35.627Z,99.99
2017-04-01T00:33:46.653Z,99.99
2017-04-01T00:34:57.636Z,99.99
2017-04-01T00:36:08.626Z,99.99
2017-04-01T00:37:19.821Z,99.99
2017-04-01T00:38:30.848Z,99.99
2017-04-01T00:39:41.840Z,99.99
2017-04-01T00:40:52.838Z,99.99
2017-04-01T00:42:03.830Z,99.99
2017-04-01T00:43:14.825Z,99.99
2017-04-01T00:44:25.800Z,99.99
2017-04-01T00:45:36.804Z,99.99
2017-04-01T00:46:47.995Z,99.99
2017-04-01T00:47:59.595Z,99.99
2017-04-01T00:49:10.645Z,99.99
2017-04-01T00:50:21.633Z,99.99
2017-04-01T00:51:32.623Z,99.99
2017-04-01T00:52:43.613Z,99.99
2017-04-01T00:53:54.804Z,99.99
2017-04-01T00:55:05.794Z,99.99
2017-04-01T00:56:16.785Z,99.99
2017-04-01T00:57:27.778Z,99.99
2017-04-01T00:58:38.764Z,99.99
2017-04-01T00:59:50.208Z,99.99
2017-04-01T01:01:01.406Z,99.99
2017-04-01T01:02:12.392Z,99.99
2017-04-01T01:03:23.381Z,99.99
2017-04-01T01:04:34.573Z,99.99
2017-04-01T01:05:45.766Z,99.99
2017-04-01T01:06:56.754Z,99.99
2017-04-01T01:08:07.744Z,99.99
2017-04-01T01:09:18.735Z,99.99
2017-04-01T01:10:29.733Z,99.99
2017-04-01T01:11:40.733Z,99.99
2017-04-01T01:12:51.724Z,99.99
2017-04-01T01:14:02.709Z,99.99
2017-04-01T01:15:13.697Z,99.99
2017-04-01T01:16:24.737Z,99.99
2017-04-01T01:17:35.727Z,99.99
2017-04-01T01:18:46.716Z,99.99
2017-04-01T01:19:57.703Z,99.99
2017-04-01T01:21:08.897Z,99.99
2017-04-01T01:22:20.488Z,99.99
2017-04-01T01:23:31.490Z,99.99
2017-04-01T01:24:42.471Z,99.99
2017-04-01T01:25:53.670Z,99.99
2017-04-01T01:27:04.711Z,99.99
2017-04-01T01:28:15.694Z,99.99
2017-04-01T01:29:26.677Z,99.99
2017-04-01T01:30:38.079Z,99.99
2017-04-01T01:31:49.276Z,99.99
2017-04-01T01:33:00.264Z,99.99
2017-04-01T01:34:11.251Z,99.99
2017-04-01T01:35:22.290Z,99.99
2017-04-01T01:36:33.486Z,99.99
2017-04-01T01:37:44.733Z,99.99
2017-04-01T01:38:55.723Z,99.99
2017-04-01T01:40:06.919Z,99.99
2017-04-01T01:41:18.104Z,99.99
2017-04-01T01:42:29.090Z,99.99
2017-04-01T01:43:40.282Z,99.99
2017-04-01T01:44:51.268Z,99.99
2017-04-01T01:46:02.459Z,99.99
2017-04-01T01:47:13.654Z,99.99
2017-04-01T01:48:24.650Z,99.99
2017-04-01T01:49:35.898Z,99.99
2017-04-01T01:50:46.891Z,99.99
2017-04-01T01:51:58.086Z,99.99
2017-04-01T01:53:09.097Z,99.99
2017-04-01T01:54:20.276Z,99.99
2017-04-01T01:55:31.268Z,99.99
2017-04-01T01:56:42.457Z,99.99
2017-04-01T01:57:53.458Z,99.99
2017-04-01T01:59:04.502Z,99.99
2017-04-01T02:00:15.908Z,99.99
2017-04-01T02:01:27.148Z,99.99
2017-04-01T02:02:38.147Z,99.99
2017-04-01T02:03:49.130Z,99.99
2017-04-01T02:05:00.117Z,99.99
2017-04-01T02:06:11.507Z,99.99
2017-04-01T02:07:22.504Z,99.99
2017-04-01T02:08:33.489Z,99.99
2017-04-01T02:09:44.734Z,99.99
2017-04-01T02:10:55.723Z,99.99
2017-04-01T02:12:06.916Z,99.99
2017-04-01T02:13:17.904Z,99.99
2017-04-01T02:14:28.909Z,99.99
2017-04-01T02:15:39.946Z,99.99
2017-04-01T02:16:50.941Z,99.99
2017-04-01T02:18:02.127Z,99.99
2017-04-01T02:19:13.105Z,99.99
2017-04-01T02:20:24.097Z,99.99
2017-04-01T02:21:35.083Z,99.99
2017-04-01T02:22:46.062Z,99.99
2017-04-01T02:23:57.045Z,99.99
2017-04-01T02:25:08.033Z,99.99
2017-04-01T02:26:19.028Z,99.99
2017-04-01T02:27:30.266Z,99.99
2017-04-01T02:28:41.458Z,99.99
2017-04-01T02:29:52.648Z,99.99
2017-04-01T02:31:03.631Z,99.99
2017-04-01T02:32:14.818Z,99.99
2017-04-01T02:33:25.816Z,99.99
2017-04-01T02:34:36.813Z,99.99
2017-04-01T02:35:47.800Z,99.99
2017-04-01T02:36:59.043Z,99.99
2017-04-01T02:38:10.235Z,99.99
2017-04-01T02:39:21.229Z,99.99
2017-04-01T02:40:32.215Z,99.99
2017-04-01T02:41:43.203Z,99.99
2017-04-01T02:42:54.200Z,99.99
2017-04-01T02:44:05.185Z,99.99
2017-04-01T02:45:16.387Z,99.99
2017-04-01T02:46:27.382Z,99.99
2017-04-01T02:47:38.422Z,99.99
2017-04-01T02:48:49.812Z,99.99
2017-04-01T02:50:00.788Z,99.99
2017-04-01T02:51:11.976Z,99.99
2017-04-01T02:52:22.973Z,99.99
2017-04-01T02:53:34.018Z,99.99
2017-04-01T02:54:45.004Z,99.99
2017-04-01T02:55:55.990Z,99.99
2017-04-01T02:57:06.986Z,99.99
2017-04-01T02:58:17.979Z,99.99
2017-04-01T02:59:28.963Z,99.99
2017-04-01T03:00:39.949Z,99.99
2017-04-01T03:01:50.931Z,99.99
2017-04-01T03:03:01.919Z,99.99
2017-04-01T03:04:12.909Z,99.99
2017-04-01T03:05:24.162Z,99.99
2017-04-01T03:06:35.159Z,99.99
2017-04-01T03:07:46.346Z,99.99
2017-04-01T03:08:57.339Z,99.99
2017-04-01T03:10:08.325Z,99.99
2017-04-01T03:11:19.752Z,99.99
2017-04-01T03:12:30.747Z,99.99
2017-04-01T03:13:41.779Z,99.99
2017-04-01T03:14:53.033Z,99.99
2017-04-01T03:16:04.018Z,99.99
2017-04-01T03:17:15.048Z,99.99
2017-04-01T03:18:26.042Z,99.99
2017-04-01T03:19:37.030Z,99.99
2017-04-01T03:20:48.016Z,99.99
2017-04-01T03:21:59.204Z,99.99
2017-04-01T03:23:10.200Z,99.99
2017-04-01T03:24:21.188Z,99.99
2017-04-01T03:25:32.223Z,99.99
2017-04-01T03:26:43.617Z,99.99
2017-04-01T03:27:54.612Z,99.99
2017-04-01T03:29:05.804Z,99.99
2017-04-01T03:30:16.797Z,99.99
2017-04-01T03:31:27.784Z,99.99
2017-04-01T03:32:38.768Z,99.99
2017-04-01T03:33:49.761Z,99.99
2017-04-01T03:35:00.736Z,99.99
2017-04-01T03:36:11.726Z,99.99
2017-04-01T03:37:22.724Z,99.99
2017-04-01T03:38:33.712Z,99.99
2017-04-01T03:39:44.731Z,99.99
2017-04-01T03:40:55.718Z,99.99
2017-04-01T03:42:06.709Z,99.99
2017-04-01T03:43:17.756Z,99.99
2017-04-01T03:44:28.754Z,99.99
2017-04-01T03:45:39.737Z,99.99
2017-04-01T03:46:50.728Z,99.99
2017-04-01T03:48:01.717Z,99.99
2017-04-01T03:49:12.704Z,99.75
2017-04-01T03:50:23.692Z,99.99
2017-04-01T03:51:34.673Z,99.99
2017-04-01T03:52:45.712Z,99.18
2017-04-01T03:53:56.700Z,98.99
2017-04-01T03:55:07.893Z,99.99
2017-04-01T03:56:18.878Z,99.99
2017-04-01T03:57:29.883Z,99.46
2017-04-01T03:58:40.890Z,99.99
2017-04-01T03:59:51.886Z,99.99
2017-04-01T04:01:03.070Z,99.99
2017-04-01T04:02:14.057Z,99.99
2017-04-01T04:03:25.088Z,99.99
2017-04-01T04:04:36.076Z,99.99
2017-04-01T04:05:47.066Z,99.99
2017-04-01T04:06:58.064Z,99.99
2017-04-01T04:08:09.262Z,99.99
2017-04-01T04:09:20.249Z,99.99
2017-04-01T04:10:31.242Z,99.99
2017-04-01T04:11:42.230Z,99.99
2017-04-01T04:12:53.222Z,99.99
2017-04-01T04:14:04.209Z,99.99
2017-04-01T04:15:15.397Z,99.99
2017-04-01T04:16:26.395Z,99.99
2017-04-01T04:17:37.382Z,99.99
2017-04-01T04:18:48.577Z,99.99
2017-04-01T04:19:59.816Z,99.99
2017-04-01T04:21:10.996Z,99.99
2017-04-01T04:22:22.180Z,99.99
2017-04-01T04:23:33.373Z,99.99
2017-04-01T04:24:44.557Z,99.99
2017-04-01T04:25:55.534Z,99.99
2017-04-01T04:27:06.724Z,99.99
2017-04-01T04:28:17.716Z,99.99
2017-04-01T04:29:28.904Z,99.99
2017-04-01T04:30:40.139Z,99.99
2017-04-01T04:31:51.157Z,99.99
2017-04-01T04:33:02.149Z,99.99
2017-04-01T04:34:13.137Z,99.99
2017-04-01T04:35:24.325Z,99.99
2017-04-01T04:36:35.311Z,99.99
2017-04-01T04:37:46.292Z,99.99
2017-04-01T04:38:57.275Z,99.99
2017-04-01T04:40:08.265Z,99.99
2017-04-01T04:41:19.299Z,99.99
2017-04-01T04:42:30.286Z,99.99
2017-04-01T04:43:41.271Z,99.99
2017-04-01T04:44:52.258Z,99.99
2017-04-01T04:46:03.437Z,99.99
2017-04-01T04:47:14.421Z,99.99
2017-04-01T04:48:25.403Z,99.99
2017-04-01T04:49:36.387Z,99.99
2017-04-01T04:50:47.373Z,99.99
2017-04-01T04:51:58.358Z,99.99
2017-04-01T04:53:09.400Z,99.99
2017-04-01T04:54:20.394Z,99.99
2017-04-01T04:55:31.382Z,99.99
2017-04-01T04:56:42.567Z,99.99
2017-04-01T04:57:53.558Z,99.99
2017-04-01T04:59:04.551Z,99.99
2017-04-01T05:00:15.540Z,99.99
2017-04-01T05:01:26.526Z,99.99
2017-04-01T05:02:37.810Z,99.99
2017-04-01T05:03:48.812Z,99.99
2017-04-01T05:04:59.802Z,99.99
2017-04-01T05:06:10.786Z,99.99
2017-04-01T05:07:21.972Z,99.99
2017-04-01T05:08:33.013Z,99.99
2017-04-01T05:09:43.997Z,99.99
2017-04-01T05:10:54.986Z,99.99
2017-04-01T05:12:06.171Z,99.99
2017-04-01T05:13:17.416Z,99.99
2017-04-01T05:14:28.402Z,99.99
2017-04-01T05:15:39.388Z,99.99
2017-04-01T05:16:50.583Z,99.99
2017-04-01T05:18:01.769Z,99.99
2017-04-01T05:19:12.806Z,99.99
2017-04-01T05:20:24.013Z,99.99
2017-04-01T05:21:35.202Z,99.99
2017-04-01T05:22:46.377Z,99.99
2017-04-01T05:23:57.359Z,99.99
2017-04-01T05:25:08.354Z,99.99
2017-04-01T05:26:19.333Z,99.99
2017-04-01T05:27:30.525Z,99.99
2017-04-01T05:28:41.717Z,99.99
2017-04-01T05:29:52.912Z,99.99
2017-04-01T05:31:03.948Z,99.99
2017-04-01T05:32:15.136Z,99.99
2017-04-01T05:33:26.325Z,99.99
2017-04-01T05:34:37.718Z,99.99
2017-04-01T05:35:48.701Z,99.99
2017-04-01T05:36:59.679Z,99.99
2017-04-01T05:38:10.861Z,99.99
2017-04-01T05:39:21.855Z,99.99
2017-04-01T05:40:32.894Z,99.99
2017-04-01T05:41:43.879Z,99.99
2017-04-01T05:42:55.063Z,99.99
2017-04-01T05:44:06.051Z,99.99
2017-04-01T05:45:17.065Z,99.99
2017-04-01T05:46:28.061Z,99.99
2017-04-01T05:47:39.291Z,99.99
2017-04-01T05:48:50.276Z,99.99
2017-04-01T05:50:01.264Z,99.99
2017-04-01T05:51:12.297Z,99.99
2017-04-01T05:52:23.492Z,99.99
2017-04-01T05:53:34.486Z,99.99
2017-04-01T05:54:45.674Z,99.99
2017-04-01T05:55:56.657Z,99.99
2017-04-01T05:57:07.649Z,99.99
2017-04-01T05:58:18.839Z,99.99
2017-04-01T05:59:30.025Z,99.99
2017-04-01T06:00:41.016Z,99.99
2017-04-01T06:01:52.009Z,99.99
2017-04-01T06:03:02.999Z,99.99
2017-04-01T06:04:14.183Z,99.99
2017-04-01T06:05:25.167Z,99.99
2017-04-01T06:06:36.152Z,99.99
2017-04-01T06:07:47.141Z,99.99
2017-04-01T06:08:58.378Z,99.99
2017-04-01T06:10:09.368Z,99.99
2017-04-01T06:11:20.356Z,99.99
2017-04-01T06:12:31.340Z,99.99
2017-04-01T06:13:42.734Z,99.99
2017-04-01T06:14:53.726Z,99.99
2017-04-01T06:16:04.733Z,99.99
2017-04-01T06:17:15.916Z,99.99
2017-04-01T06:18:27.159Z,99.99
2017-04-01T06:19:38.149Z,99.99
2017-04-01T06:20:49.151Z,99.99
2017-04-01T06:22:00.135Z,99.99
2017-04-01T06:23:11.136Z,99.99
2017-04-01T06:24:22.327Z,99.99
2017-04-01T06:25:33.518Z,99.99
2017-04-01T06:26:44.538Z,99.99
2017-04-01T06:27:55.516Z,99.99
2017-04-01T06:29:06.558Z,99.99
2017-04-01T06:30:17.549Z,99.99
2017-04-01T06:31:28.541Z,99.99
2017-04-01T06:32:39.737Z,99.99
2017-04-01T06:33:50.727Z,99.99
2017-04-01T06:35:01.729Z,99.99
2017-04-01T06:36:12.726Z,99.99
2017-04-01T06:37:23.720Z,99.99
2017-04-01T06:38:34.747Z,99.99
2017-04-01T06:39:45.941Z,99.99
2017-04-01T06:40:56.934Z,99.99
2017-04-01T06:42:07.926Z,99.99
2017-04-01T06:43:18.950Z,99.99
2017-04-01T06:44:29.947Z,99.99
2017-04-01T06:45:40.935Z,99.99
2017-04-01T06:46:52.187Z,99.99
2017-04-01T06:48:03.174Z,99.99
2017-04-01T06:49:14.171Z,99.99
2017-04-01T06:50:25.167Z,99.99
2017-04-01T06:51:36.374Z,99.99
2017-04-01T06:52:47.356Z,99.99
2017-04-01T06:53:58.350Z,99.99
2017-04-01T06:55:09.344Z,99.99
2017-04-01T06:56:20.606Z,99.99
2017-04-01T06:57:31.650Z,99.99
2017-04-01T06:58:42.845Z,99.99
2017-04-01T06:59:54.090Z,99.99
2017-04-01T07:01:05.082Z,99.99
2017-04-01T07:02:16.071Z,98.94
2017-04-01T07:03:27.266Z,98.52
2017-04-01T07:04:38.265Z,96.89
2017-04-01T07:05:49.254Z,99.99
2017-04-01T07:07:00.293Z,99.99
2017-04-01T07:08:11.292Z,99.99
2017-04-01T07:09:22.284Z,99.99
2017-04-01T07:10:33.288Z,99.99
2017-04-01T07:11:44.494Z,99.99
2017-04-01T07:12:55.486Z,99.99
2017-04-01T07:14:06.478Z,99.99
2017-04-01T07:15:17.485Z,99.99
2017-04-01T07:16:28.475Z,99.99
2017-04-01T07:17:39.470Z,99.99
2017-04-01T07:18:50.718Z,99.72
2017-04-01T07:20:01.710Z,99.99
2017-04-01T07:21:12.703Z,97.38
2017-04-01T07:22:23.704Z,99.87
2017-04-01T07:23:34.899Z,99
2017-04-01T07:24:45.892Z,96.51
2017-04-01T07:25:56.894Z,95.6
2017-04-01T07:27:08.089Z,96.56
2017-04-01T07:28:19.138Z,94.45
2017-04-01T07:29:30.338Z,90.67
2017-04-01T07:30:41.540Z,92.49
2017-04-01T07:31:52.542Z,91.28
2017-04-01T07:33:03.550Z,91.28
2017-04-01T07:34:14.561Z,90.61
2017-04-01T07:35:25.552Z,90.81
2017-04-01T07:36:36.555Z,90.04
2017-04-01T07:37:47.550Z,87.55
2017-04-01T07:38:58.808Z,88.6
2017-04-01T07:40:09.839Z,90.23
2017-04-01T07:41:20.840Z,88.6
2017-04-01T07:42:31.838Z,87.07
2017-04-01T07:43:42.844Z,84.23
2017-04-01T07:44:53.845Z,83.94
2017-04-01T07:46:05.052Z,83.37
2017-04-01T07:47:16.258Z,83.22
2017-04-01T07:48:27.260Z,84.56
2017-04-01T07:49:38.261Z,84.75
2017-04-01T07:50:49.464Z,84.47
2017-04-01T07:52:00.467Z,83.6
2017-04-01T07:53:11.467Z,83.8
2017-04-01T07:54:22.470Z,83.93
2017-04-01T07:55:33.524Z,82.97
2017-04-01T07:56:44.761Z,83.16
2017-04-01T07:57:55.771Z,82.87
2017-04-01T07:59:06.780Z,81.43
2017-04-01T08:00:17.983Z,82.34
2017-04-01T08:01:28.985Z,84.17
2017-04-01T08:02:40.195Z,81.09
2017-04-01T08:03:51.200Z,80.94
2017-04-01T08:05:02.251Z,80.65
2017-04-01T08:06:13.257Z,80.36
2017-04-01T08:07:24.664Z,79.3
2017-04-01T08:08:35.679Z,79.69
2017-04-01T08:09:46.677Z,78.53
2017-04-01T08:10:57.681Z,76.61
2017-04-01T08:12:08.695Z,75.21
2017-04-01T08:13:19.903Z,74.48
2017-04-01T08:14:30.912Z,72.55
2017-04-01T08:15:42.168Z,71.62
2017-04-01T08:16:53.180Z,71.34
2017-04-01T08:18:04.398Z,70.7
2017-04-01T08:19:15.410Z,71.08
2017-04-01T08:20:26.425Z,69.83
2017-04-01T08:21:37.681Z,69.19
2017-04-01T08:22:48.687Z,69.64
2017-04-01T08:23:59.695Z,70.31
2017-04-01T08:25:10.695Z,71.14
2017-04-01T08:26:21.704Z,71.4
2017-04-01T08:27:32.708Z,72.11
2017-04-01T08:28:43.918Z,70.56
2017-04-01T08:29:55.141Z,68.96
2017-04-01T08:31:06.146Z,68.52
2017-04-01T08:32:17.156Z,68.32
2017-04-01T08:33:28.409Z,68.71
2017-04-01T08:34:39.618Z,67.74
2017-04-01T08:35:50.625Z,66.69
2017-04-01T08:37:01.640Z,67.07
2017-04-01T08:38:12.649Z,66.91
2017-04-01T08:39:23.647Z,67.2
2017-04-01T08:40:34.652Z,67.3
2017-04-01T08:41:45.870Z,67.74
2017-04-01T08:42:57.132Z,67
2017-04-01T08:44:08.138Z,68.23
2017-04-01T08:45:19.142Z,69.09
2017-04-01T08:46:30.342Z,69.64
2017-04-01T08:47:41.344Z,69.09
2017-04-01T08:48:52.352Z,69.48
2017-04-01T08:50:03.370Z,69.93
2017-04-01T08:51:14.776Z,70.12
2017-04-01T08:52:25.780Z,70.12
2017-04-01T08:53:36.830Z,69.25
2017-04-01T08:54:47.826Z,69.48
2017-04-01T08:55:58.832Z,68.9
2017-04-01T08:57:09.841Z,66.43
2017-04-01T08:58:20.847Z,65.85
2017-04-01T08:59:31.869Z,65.27
2017-04-01T09:00:42.875Z,66.24
2017-04-01T09:01:53.877Z,66.39
2017-04-01T09:03:04.885Z,67.65
2017-04-01T09:04:16.095Z,68.58
2017-04-01T09:05:27.109Z,69.99
2017-04-01T09:06:38.153Z,70.47
2017-04-01T09:07:49.370Z,70.76
2017-04-01T09:09:00.380Z,70.56
2017-04-01T09:10:11.384Z,70.76
2017-04-01T09:11:22.636Z,70.76
2017-04-01T09:12:33.647Z,71.3
2017-04-01T09:13:44.684Z,72.55
2017-04-01T09:14:55.694Z,73.22
2017-04-01T09:16:06.701Z,73.42
2017-04-01T09:17:17.718Z,73.28
2017-04-01T09:18:28.718Z,74.05
2017-04-01T09:19:39.749Z,74.05
2017-04-01T09:20:51.009Z,75.59
2017-04-01T09:22:02.006Z,74.54
2017-04-01T09:23:13.018Z,75.07
2017-04-01T09:24:24.038Z,74.73
2017-04-01T09:25:35.036Z,75.56
2017-04-01T09:26:46.038Z,75.75
2017-04-01T09:27:57.238Z,77
2017-04-01T09:29:08.240Z,77.29
2017-04-01T09:30:19.238Z,76.23
2017-04-01T09:31:30.289Z,74.79
2017-04-01T09:32:41.295Z,74.44
2017-04-01T09:33:52.328Z,74.05
2017-04-01T09:35:03.545Z,74.25
2017-04-01T09:36:14.541Z,73.38
2017-04-01T09:37:25.534Z,74.19
2017-04-01T09:38:36.738Z,73.32
2017-04-01T09:39:47.939Z,71.43
2017-04-01T09:40:59.148Z,70.95
2017-04-01T09:42:10.156Z,69.93
2017-04-01T09:43:21.168Z,68.77
2017-04-01T09:44:32.177Z,67.46
2017-04-01T09:45:43.180Z,67.07
2017-04-01T09:46:54.182Z,66.62
2017-04-01T09:48:05.639Z,67.04
2017-04-01T09:49:16.662Z,65.95
2017-04-01T09:50:27.661Z,66.62
2017-04-01T09:51:38.665Z,66.33
2017-04-01T09:52:50.068Z,66.39
2017-04-01T09:54:01.078Z,66.49
2017-04-01T09:55:12.082Z,67.55
2017-04-01T09:56:23.089Z,67.55
2017-04-01T09:57:34.110Z,68.42
2017-04-01T09:58:45.373Z,68.9
2017-04-01T09:59:56.395Z,67.71
2017-04-01T10:01:07.399Z,68.68
2017-04-01T10:02:18.406Z,69.45
2017-04-01T10:03:29.614Z,69.41
2017-04-01T10:04:40.811Z,69.73
2017-04-01T10:05:51.812Z,70.18
2017-04-01T10:07:02.811Z,68.99
2017-04-01T10:08:13.814Z,67.94
2017-04-01T10:09:25.066Z,67.74
2017-04-01T10:10:36.071Z,68.52
2017-04-01T10:11:47.078Z,69.25
2017-04-01T10:12:58.087Z,69.73
2017-04-01T10:14:09.289Z,68.87
2017-04-01T10:15:20.295Z,69.35
2017-04-01T10:16:31.300Z,68.48
2017-04-01T10:17:42.297Z,66.65
2017-04-01T10:18:53.293Z,66.78
2017-04-01T10:20:04.310Z,65.72
2017-04-01T10:21:15.570Z,65.85
2017-04-01T10:22:26.571Z,65.85
2017-04-01T10:23:37.592Z,65.69
2017-04-01T10:24:48.595Z,65.24
2017-04-01T10:25:59.607Z,64.5
2017-04-01T10:27:10.813Z,63.34
2017-04-01T10:28:21.816Z,62.37
2017-04-01T10:29:32.825Z,62.66
2017-04-01T10:30:44.106Z,62.37
2017-04-01T10:31:55.115Z,62.28
2017-04-01T10:33:06.326Z,62.95
2017-04-01T10:34:17.543Z,61.99
2017-04-01T10:35:28.558Z,62.08
2017-04-01T10:36:39.565Z,61.6
2017-04-01T10:37:50.975Z,60.96
2017-04-01T10:39:01.979Z,60.64
2017-04-01T10:40:12.995Z,60.93
2017-04-01T10:41:24.258Z,61.15
2017-04-01T10:42:35.266Z,61.25
2017-04-01T10:43:46.493Z,60.54
2017-04-01T10:44:57.727Z,60.73
2017-04-01T10:46:08.935Z,61.7
2017-04-01T10:47:19.956Z,61.28
2017-04-01T10:48:30.959Z,61.86
2017-04-01T10:49:41.969Z,63.79
2017-04-01T10:50:52.978Z,62.92
2017-04-01T10:52:04.027Z,63.31
2017-04-01T10:53:15.035Z,62.92
2017-04-01T10:54:26.042Z,63.02
2017-04-01T10:55:37.051Z,62.99
2017-04-01T10:56:48.051Z,63.6
2017-04-01T10:57:59.059Z,61.67
2017-04-01T10:59:10.064Z,62.25
2017-04-01T11:00:21.091Z,61.77
2017-04-01T11:01:32.101Z,62.28
2017-04-01T11:02:43.164Z,61.89
2017-04-01T11:03:54.166Z,62.18
2017-04-01T11:05:05.190Z,60.57
2017-04-01T11:06:16.210Z,60.86
2017-04-01T11:07:27.209Z,62.02
2017-04-01T11:08:38.214Z,60.64
2017-04-01T11:09:49.216Z,61.51
2017-04-01T11:11:00.217Z,62.37
2017-04-01T11:12:11.471Z,63.02
2017-04-01T11:13:22.472Z,63.89
2017-04-01T11:14:33.481Z,63.6
2017-04-01T11:15:44.483Z,63.89
2017-04-01T11:16:55.492Z,64.28
2017-04-01T11:18:06.501Z,64.05
2017-04-01T11:19:17.513Z,65.5
2017-04-01T11:20:28.523Z,65.2
2017-04-01T11:21:39.531Z,64.59
2017-04-01T11:22:50.581Z,64.5
2017-04-01T11:24:01.584Z,64.5
2017-04-01T11:25:12.583Z,65.24
2017-04-01T11:26:23.593Z,65.63
2017-04-01T11:27:34.599Z,65.33
2017-04-01T11:28:45.912Z,66.49
2017-04-01T11:29:56.912Z,66.39
2017-04-01T11:31:07.905Z,66.3
2017-04-01T11:32:18.901Z,66.3
2017-04-01T11:33:29.921Z,65.91
2017-04-01T11:34:41.320Z,65.72
2017-04-01T11:35:52.525Z,65.81
2017-04-01T11:37:03.529Z,65.63
2017-04-01T11:38:14.533Z,66.69
2017-04-01T11:39:25.740Z,66.3
2017-04-01T11:40:36.998Z,66.59
2017-04-01T11:41:48.007Z,66.46
2017-04-01T11:42:59.008Z,66.17
2017-04-01T11:44:10.000Z,66.17
2017-04-01T11:45:20.994Z,66.17
2017-04-01T11:46:31.995Z,65.59
2017-04-01T11:47:42.997Z,66.07
2017-04-01T11:48:54.000Z,66.46
2017-04-01T11:50:05.255Z,66.07
2017-04-01T11:51:16.252Z,66.01
2017-04-01T11:52:27.261Z,66.78
2017-04-01T11:53:38.271Z,66.52
2017-04-01T11:54:49.269Z,66.27
2017-04-01T11:56:00.513Z,64.43
2017-04-01T11:57:11.524Z,65.2
2017-04-01T11:58:22.520Z,65.2
2017-04-01T11:59:33.532Z,65.3
2017-04-01T12:00:44.788Z,62.92
2017-04-01T12:01:55.999Z,64.47
2017-04-01T12:03:07.011Z,63.7
2017-04-01T12:04:18.013Z,66.69
2017-04-01T12:05:29.017Z,66.11
2017-04-01T12:06:40.029Z,65.72
2017-04-01T12:07:51.039Z,66.69
2017-04-01T12:09:02.044Z,64.95
2017-04-01T12:10:13.048Z,66.46
2017-04-01T12:11:24.278Z,65.69
2017-04-01T12:12:35.275Z,65.75
2017-04-01T12:13:46.308Z,66.52
2017-04-01T12:14:57.313Z,66.78
2017-04-01T12:16:08.519Z,66.01
2017-04-01T12:17:19.575Z,66.49
2017-04-01T12:18:30.817Z,66.49
2017-04-01T12:19:41.825Z,69.29
2017-04-01T12:20:52.826Z,66.69
2017-04-01T12:22:03.832Z,66.69
2017-04-01T12:23:14.833Z,68.8
2017-04-01T12:24:25.830Z,68.96
2017-04-01T12:25:37.228Z,66.46
2017-04-01T12:26:48.228Z,68.48
2017-04-01T12:27:59.288Z,68.1
2017-04-01T12:29:10.485Z,67.9
2017-04-01T12:30:21.483Z,69.35
2017-04-01T12:31:32.685Z,67.33
2017-04-01T12:32:43.891Z,67.52
2017-04-01T12:33:54.896Z,67.42
2017-04-01T12:35:05.893Z,67.33
2017-04-01T12:36:16.901Z,66.46
2017-04-01T12:37:27.898Z,67.33
2017-04-01T12:38:39.153Z,66.65
2017-04-01T12:39:50.151Z,66.62
2017-04-01T12:41:01.347Z,66.14
2017-04-01T12:42:12.351Z,67.07
2017-04-01T12:43:23.371Z,67.45
2017-04-01T12:44:34.367Z,67.65
2017-04-01T12:45:45.373Z,66.58
2017-04-01T12:46:56.382Z,67.83
2017-04-01T12:48:07.581Z,68.09
2017-04-01T12:49:18.598Z,69.06
2017-04-01T12:50:29.657Z,69.18
2017-04-01T12:51:40.660Z,69.95
2017-04-01T12:52:51.872Z,69.18
2017-04-01T12:54:03.063Z,70.72
2017-04-01T12:55:14.063Z,69.47
2017-04-01T12:56:25.269Z,68.54
2017-04-01T12:57:36.264Z,68.64
2017-04-01T12:58:47.263Z,65.88
2017-04-01T12:59:58.321Z,64.37
2017-04-01T13:01:09.521Z,65.14
2017-04-01T13:02:20.521Z,63.79
2017-04-01T13:03:31.521Z,64.53
2017-04-01T13:04:42.525Z,66.36
2017-04-01T13:05:53.531Z,63.02
2017-04-01T13:07:04.530Z,61.87
2017-04-01T13:08:15.536Z,64.02
2017-04-01T13:09:26.547Z,62.96
2017-04-01T13:10:37.803Z,63.82
2017-04-01T13:11:48.807Z,60.86
2017-04-01T13:12:59.808Z,62.22
2017-04-01T13:14:11.210Z,59.35
2017-04-01T13:15:22.205Z,61.54
2017-04-01T13:16:33.415Z,60.19
2017-04-01T13:17:44.630Z,60.1
2017-04-01T13:18:55.839Z,60
2017-04-01T13:20:06.845Z,60.86
2017-04-01T13:21:18.051Z,61.03
2017-04-01T13:22:29.050Z,60.93
2017-04-01T13:23:40.072Z,61.03
2017-04-01T13:24:51.073Z,63.41
2017-04-01T13:26:02.273Z,62.63
2017-04-01T13:27:13.482Z,62.73
2017-04-01T13:28:24.484Z,63.89
2017-04-01T13:29:35.488Z,62.54
2017-04-01T13:30:46.486Z,62.93
2017-04-01T13:31:57.540Z,63.02
2017-04-01T13:33:08.538Z,62.83
2017-04-01T13:34:19.537Z,63.79
2017-04-01T13:35:30.542Z,63.79
2017-04-01T13:36:41.541Z,63.6
2017-04-01T13:37:52.742Z,63.02
2017-04-01T13:39:03.739Z,61.96
2017-04-01T13:40:14.741Z,62.22
2017-04-01T13:41:25.750Z,63.57
2017-04-01T13:42:37.205Z,63.67
2017-04-01T13:43:48.404Z,63.67
2017-04-01T13:44:59.408Z,65.11
2017-04-01T13:46:10.404Z,65.5
2017-04-01T13:47:21.604Z,65.24
2017-04-01T13:48:32.653Z,64.18
2017-04-01T13:49:43.651Z,64.08
2017-04-01T13:50:54.653Z,62.15
2017-04-01T13:52:05.655Z,62.93
2017-04-01T13:53:16.910Z,63.89
2017-04-01T13:54:27.906Z,63.98
2017-04-01T13:55:40.912Z,64.47
2017-04-01T13:56:51.906Z,65.17
2017-04-01T13:58:03.115Z,63.54
2017-04-01T13:59:14.109Z,64.59
2017-04-01T14:00:25.113Z,63.73
2017-04-01T14:01:36.735Z,62.66
2017-04-01T14:02:48.158Z,62.38
2017-04-01T14:03:59.357Z,62.66
2017-04-01T14:05:10.440Z,62.09
2017-04-01T14:06:21.445Z,63.73
2017-04-01T14:07:32.449Z,64.15
2017-04-01T14:08:43.449Z,63.67
2017-04-01T14:09:54.497Z,63.57
2017-04-01T14:11:05.501Z,65.11
2017-04-01T14:12:16.504Z,64.53
2017-04-01T14:13:28.965Z,64.72
2017-04-01T14:14:40.186Z,64.24
2017-04-01T14:15:51.191Z,65.4
2017-04-01T14:17:02.242Z,64.5
2017-04-01T14:18:13.241Z,66.33
2017-04-01T14:19:24.269Z,66.3
2017-04-01T14:20:35.274Z,66.11
2017-04-01T14:21:46.286Z,66.33
2017-04-01T14:22:57.287Z,66.24
2017-04-01T14:24:08.316Z,66.24
2017-04-01T14:25:19.574Z,65.53
2017-04-01T14:26:30.581Z,66.3
2017-04-01T14:27:41.579Z,67.65
2017-04-01T14:28:52.579Z,67.65
2017-04-01T14:30:03.590Z,68.61
2017-04-01T14:31:14.897Z,67.94
2017-04-01T14:32:25.905Z,68.13
2017-04-01T14:33:36.905Z,68.8
2017-04-01T14:34:47.901Z,68.52
2017-04-01T14:35:58.907Z,69.38
2017-04-01T14:37:10.112Z,69.57
2017-04-01T14:38:21.112Z,70.73
2017-04-01T14:39:32.317Z,70.73
2017-04-01T14:40:43.521Z,69.77
2017-04-01T14:41:54.717Z,69.67
2017-04-01T14:43:06.176Z,69.96
2017-04-01T14:44:17.380Z,71.02
2017-04-01T14:45:28.386Z,71.31
2017-04-01T14:46:39.389Z,70.73
2017-04-01T14:47:50.590Z,72.33
2017-04-01T14:49:01.643Z,71.85
2017-04-01T14:50:12.643Z,71.18
2017-04-01T14:51:23.647Z,72.33
2017-04-01T14:52:35.103Z,72.24
2017-04-01T14:53:46.319Z,72.72
2017-04-01T14:54:57.318Z,71.56
2017-04-01T14:56:08.524Z,72.24
2017-04-01T14:57:19.727Z,70.35
2017-04-01T14:58:30.926Z,69.57
2017-04-01T14:59:41.930Z,70.41
2017-04-01T15:00:52.937Z,70.02
2017-04-01T15:02:04.144Z,70.5
2017-04-01T15:03:15.392Z,71.47
2017-04-01T15:04:26.386Z,69.64
2017-04-01T15:05:37.379Z,70.89
2017-04-01T15:06:48.390Z,70.6
2017-04-01T15:07:59.596Z,70.02
2017-04-01T15:09:10.582Z,72.2
2017-04-01T15:10:21.778Z,71.14
2017-04-01T15:11:32.780Z,71.72
2017-04-01T15:12:44.005Z,71.72
2017-04-01T15:13:55.205Z,73.55
2017-04-01T15:15:06.404Z,72.68
2017-04-01T15:16:17.599Z,72.88
2017-04-01T15:17:28.596Z,72.78